Time;durP1;ratioP1;P1;durP2;ratioP2;P2;SDS_P1;SDS_P2;PMS_P1;PMS_P2;Temp;Humidity;BMP_temperature;BMP_pressure;BME280_temperature;BME280_humidity;BME280_pressure;Samples;Min_cycle;Max_cycle;Signal;HPM_P1;HPM_P2
2023/01/12 00:01:29;;;;;;;6.50;1.25;;;8.80;99.90;;;;;;5097483;28;20042;-72
2023/01/12 00:03:55;;;;;;;4.55;1.35;;;8.80;99.90;;;;;;5097129;28;20472;-75
2023/01/12 00:06:22;;;;;;;3.67;1.20;;;8.80;99.90;;;;;;5097424;28;20024;-71
2023/01/12 00:08:49;;;;;;;3.45;0.90;;;8.80;99.90;;;;;;5097350;28;20469;-72
2023/01/12 00:11:15;;;;;;;5.60;1.05;;;8.80;99.90;;;;;;5096906;28;20107;-72
2023/01/12 00:13:41;;;;;;;3.83;0.88;;;8.80;99.90;;;;;;5116002;28;20020;-72
2023/01/12 00:18:58;;;;;;;6.35;1.10;;;8.80;99.90;;;;;;5113358;28;20050;-72
2023/01/12 00:21:25;;;;;;;4.13;0.82;;;8.80;99.90;;;;;;5097378;28;20027;-72
2023/01/12 00:23:50;;;;;;;7.97;1.02;;;8.80;99.90;;;;;;5115342;28;20148;-72
2023/01/12 00:26:16;;;;;;;7.50;1.20;;;8.80;99.90;;;;;;5096288;28;20538;-72
2023/01/12 00:28:41;;;;;;;4.65;0.80;;;8.80;99.90;;;;;;5115483;28;20039;-72
2023/01/12 00:31:09;;;;;;;5.47;0.85;;;8.80;99.90;;;;;;5096258;28;20036;-72
2023/01/12 00:33:36;;;;;;;5.43;1.15;;;8.90;99.90;;;;;;5097037;28;20039;-72
2023/01/12 00:36:08;;;;;;;2.13;0.90;;;8.90;99.90;;;;;;5114440;28;20027;-72
2023/01/12 00:38:35;;;;;;;10.23;1.23;;;8.90;99.90;;;;;;5096993;28;20020;-72
2023/01/12 00:45:20;;;;;;;9.25;1.00;;;8.90;99.90;;;;;;5096184;28;20027;-72
2023/01/12 00:46:44;;;;;;;8.20;1.35;;;8.90;99.90;;;;;;5114971;28;20034;-72
2023/01/12 00:49:10;;;;;;;5.10;0.90;;;8.90;99.90;;;;;;5095798;28;20028;-72
2023/01/12 00:51:35;;;;;;;6.13;1.10;;;8.90;99.90;;;;;;5096508;28;20031;-72
2023/01/12 00:54:03;;;;;;;4.05;1.33;;;9.00;99.90;;;;;;5095962;28;20419;-73
2023/01/12 00:56:30;;;;;;;4.18;0.75;;;9.00;99.90;;;;;;5096734;28;20023;-72
2023/01/12 00:58:55;;;;;;;5.30;0.90;;;9.00;99.90;;;;;;5096422;28;20028;-73
2023/01/12 01:01:21;;;;;;;5.90;1.00;;;9.00;99.90;;;;;;5114222;28;20106;-72
2023/01/12 01:03:47;;;;;;;4.07;1.02;;;9.00;99.90;;;;;;5114650;28;20073;-72
2023/01/12 01:06:13;;;;;;;6.97;1.33;;;9.00;99.90;;;;;;5095742;28;20031;-71
2023/01/12 01:08:38;;;;;;;4.88;1.10;;;9.10;99.90;;;;;;5114518;28;20059;-72
2023/01/12 01:11:06;;;;;;;6.25;1.10;;;9.00;99.90;;;;;;5095314;28;20106;-72
2023/01/12 01:13:35;;;;;;;7.63;1.52;;;9.10;99.90;;;;;;5114402;28;20381;-72
2023/01/12 01:16:02;;;;;;;8.57;0.90;;;9.10;99.90;;;;;;5113723;28;20028;-73
2023/01/12 01:18:28;;;;;;;4.70;1.25;;;9.10;99.90;;;;;;5095961;28;20184;-72
2023/01/12 01:20:54;;;;;;;8.90;1.45;;;9.10;99.90;;;;;;5096032;28;20028;-72
2023/01/12 01:23:21;;;;;;;6.60;0.95;;;9.10;99.90;;;;;;5113704;28;20028;-72
2023/01/12 01:25:46;;;;;;;4.95;0.93;;;9.10;99.90;;;;;;5114374;28;20453;-72
2023/01/12 01:28:12;;;;;;;4.13;0.90;;;9.10;99.90;;;;;;5094934;28;20038;-72
2023/01/12 01:30:38;;;;;;;4.63;0.82;;;9.10;99.90;;;;;;5114095;28;20063;-72
2023/01/12 01:33:04;;;;;;;4.45;0.85;;;9.10;99.90;;;;;;5113374;28;20024;-72
2023/01/12 01:35:29;;;;;;;7.07;1.10;;;9.10;99.90;;;;;;5113735;28;20098;-72
2023/01/12 01:37:55;;;;;;;7.40;1.10;;;9.20;99.90;;;;;;5095749;28;20024;-71
2023/01/12 01:40:20;;;;;;;5.25;1.20;;;9.20;99.90;;;;;;5094657;28;20169;-72
2023/01/12 01:42:46;;;;;;;8.13;1.10;;;9.20;99.90;;;;;;5095600;28;20024;-72
2023/01/12 01:45:15;;;;;;;6.43;1.10;;;9.10;99.90;;;;;;5094827;28;20067;-72
2023/01/12 01:47:45;;;;;;;5.13;1.02;;;9.20;99.90;;;;;;5095601;28;20028;-72
2023/01/12 01:50:21;;;;;;;5.82;1.08;;;9.20;99.90;;;;;;5094624;28;20028;-72
2023/01/12 01:53:05;;;;;;;5.65;1.15;;;9.20;99.90;;;;;;5095648;28;20477;-72
2023/01/12 01:55:47;;;;;;;4.85;1.10;;;9.20;99.90;;;;;;5113778;28;20027;-71
2023/01/12 01:58:16;;;;;;;10.63;1.20;;;9.20;99.90;;;;;;5112715;28;20110;-72
2023/01/12 02:00:42;;;;;;;4.88;1.10;;;9.20;99.90;;;;;;5095287;28;20122;-72
2023/01/12 02:03:10;;;;;;;8.15;1.17;;;9.20;99.90;;;;;;5112787;28;20483;-72
2023/01/12 02:05:38;;;;;;;5.30;0.90;;;9.20;99.90;;;;;;5095303;28;20118;-72
2023/01/12 02:08:22;;;;;;;3.65;1.27;;;9.20;99.90;;;;;;5112481;28;20419;-73
2023/01/12 02:10:52;;;;;;;7.57;1.05;;;9.20;99.90;;;;;;5095358;28;20031;-72
2023/01/12 02:16:26;;;;;;;2.78;0.85;;;9.20;99.90;;;;;;5113091;28;20101;-73
2023/01/12 02:19:29;;;;;;;7.70;1.40;;;9.20;99.90;;;;;;5094990;28;20051;-72
2023/01/12 02:22:10;;;;;;;3.00;0.82;;;9.10;99.90;;;;;;5094769;28;20475;-72
2023/01/12 02:24:43;;;;;;;7.50;1.40;;;9.10;99.90;;;;;;5112952;28;20028;-72
2023/01/12 02:27:20;;;;;;;8.10;1.23;;;9.10;99.90;;;;;;5112475;28;20058;-72
2023/01/12 02:30:23;;;;;;;7.43;1.10;;;9.10;99.90;;;;;;5094743;28;20031;-72
2023/01/12 02:32:55;;;;;;;8.20;2.08;;;9.10;99.90;;;;;;5094631;28;20540;-72
2023/01/12 02:35:28;;;;;;;5.95;1.35;;;9.10;99.90;;;;;;5094396;28;20097;-72
2023/01/12 02:38:27;;;;;;;6.13;1.20;;;9.10;99.90;;;;;;5094739;28;20464;-72
2023/01/12 02:41:04;;;;;;;4.75;0.90;;;9.10;99.90;;;;;;5093555;28;20118;-72
2023/01/12 02:43:33;;;;;;;11.13;1.60;;;9.10;99.90;;;;;;5094357;28;20533;-72
2023/01/12 02:46:20;;;;;;;9.20;1.30;;;9.10;99.90;;;;;;5112991;28;20027;-71
2023/01/12 02:49:03;;;;;;;7.22;1.27;;;9.10;99.90;;;;;;5094904;28;20418;-72
2023/01/12 02:51:46;;;;;;;4.72;1.20;;;9.10;99.90;;;;;;5094430;28;20600;-72
2023/01/12 02:54:14;;;;;;;7.75;1.17;;;9.00;99.90;;;;;;5094203;28;20028;-72
2023/01/12 02:56:48;;;;;;;10.75;1.65;;;9.00;99.90;;;;;;5094546;28;20031;-72
2023/01/12 02:59:20;;;;;;;6.45;0.98;;;9.00;99.90;;;;;;5112185;28;20034;-72
2023/01/12 03:01:49;;;;;;;7.22;1.23;;;9.00;99.90;;;;;;5094621;28;20023;-72
2023/01/12 03:04:16;;;;;;;8.63;1.38;;;9.00;99.90;;;;;;5093363;28;20027;-72
2023/01/12 03:06:57;;;;;;;5.82;1.10;;;9.00;99.90;;;;;;5094751;28;20023;-72
2023/01/12 03:09:35;;;;;;;3.08;0.82;;;9.00;99.90;;;;;;5093887;28;20130;-72
2023/01/12 03:12:10;;;;;;;6.90;1.02;;;9.00;99.90;;;;;;5094687;28;20426;-72
2023/01/12 03:14:40;;;;;;;8.02;1.55;;;9.00;99.90;;;;;;5112339;28;20024;-72
2023/01/12 03:17:12;;;;;;;3.95;0.98;;;9.00;99.90;;;;;;5093619;28;20050;-76
2023/01/12 03:19:40;;;;;;;9.48;1.50;;;9.00;99.90;;;;;;5094650;28;20422;-72
2023/01/12 03:22:12;;;;;;;6.32;1.08;;;9.00;99.90;;;;;;5112331;28;20028;-75
2023/01/12 03:24:48;;;;;;;11.43;1.73;;;9.00;99.90;;;;;;5094609;28;20020;-72
2023/01/12 03:27:24;;;;;;;5.13;1.27;;;9.00;99.90;;;;;;5093700;28;20031;-73
2023/01/12 03:30:09;;;;;;;6.78;1.88;;;9.00;99.90;;;;;;5094602;28;20457;-72
2023/01/12 03:32:35;;;;;;;6.03;0.90;;;9.00;99.90;;;;;;5094569;28;20533;-72
2023/01/12 03:35:04;;;;;;;5.70;1.15;;;9.00;99.90;;;;;;5094305;28;20023;-72
2023/01/12 03:37:41;;;;;;;7.03;1.10;;;9.10;99.90;;;;;;5112145;28;20053;-72
2023/01/12 03:40:31;;;;;;;7.18;1.45;;;9.10;99.90;;;;;;5112441;28;20028;-74
2023/01/12 03:43:17;;;;;;;6.47;1.20;;;9.00;99.90;;;;;;5094457;28;20452;-72
2023/01/12 03:45:46;;;;;;;8.55;1.20;;;9.10;99.90;;;;;;5112502;28;20119;-73
2023/01/12 03:48:28;;;;;;;4.32;1.08;;;9.10;99.90;;;;;;5111571;28;20027;-72
2023/01/12 03:51:00;;;;;;;4.30;1.15;;;9.10;99.90;;;;;;5094101;28;20077;-72
2023/01/12 03:53:28;;;;;;;5.47;1.02;;;9.10;99.90;;;;;;5114884;28;20770;-72
2023/01/12 03:55:58;;;;;;;8.90;1.10;;;9.10;99.90;;;;;;5097622;28;20062;-72
2023/01/12 03:58:24;;;;;;;7.10;1.30;;;9.10;99.90;;;;;;5097035;28;20032;-72
2023/01/12 04:00:50;;;;;;;8.48;1.23;;;9.10;99.90;;;;;;5115906;28;20115;-73
2023/01/12 04:03:16;;;;;;;9.40;1.20;;;9.10;99.90;;;;;;5096928;28;20433;-72
2023/01/12 04:05:43;;;;;;;8.48;1.25;;;9.20;99.90;;;;;;5115753;28;20469;-72
2023/01/12 04:08:11;;;;;;;13.35;1.50;;;9.20;99.90;;;;;;5115342;28;20024;-76
2023/01/12 04:10:37;;;;;;;5.38;0.95;;;9.20;99.90;;;;;;5097022;28;20055;-73
2023/01/12 04:13:03;;;;;;;10.13;1.70;;;9.20;99.90;;;;;;5097402;28;20062;-73
2023/01/12 04:15:28;;;;;;;5.70;1.10;;;9.20;99.90;;;;;;5096488;28;20115;-72
2023/01/12 04:17:54;;;;;;;9.80;1.40;;;9.20;99.90;;;;;;5096944;28;20048;-72
2023/01/12 04:20:20;;;;;;;7.45;1.48;;;9.20;99.90;;;;;;5096505;28;20583;-73
2023/01/12 04:22:45;;;;;;;7.88;1.45;;;9.20;99.90;;;;;;5097293;28;20034;-72
2023/01/12 04:25:21;;;;;;;8.32;1.08;;;9.30;99.90;;;;;;5096497;28;20077;-75
2023/01/12 04:27:57;;;;;;;2.75;1.17;;;9.30;99.90;;;;;;5115737;28;20082;-72
2023/01/12 04:30:25;;;;;;;5.85;1.10;;;9.30;99.90;;;;;;5096290;28;20040;-72
2023/01/12 04:32:52;;;;;;;6.40;1.13;;;9.20;99.90;;;;;;5096861;28;20076;-72
2023/01/12 04:35:18;;;;;;;7.20;1.20;;;9.20;99.90;;;;;;5096373;28;20386;-72
2023/01/12 04:37:44;;;;;;;9.45;1.40;;;9.30;99.90;;;;;;5097005;28;20020;-72
2023/01/12 04:40:11;;;;;;;7.32;1.13;;;9.20;99.90;;;;;;5096516;28;20114;-74
2023/01/12 04:45:21;;;;;;;4.70;1.02;;;9.20;99.90;;;;;;5114334;28;20038;-72
2023/01/12 04:47:47;;;;;;;7.95;1.10;;;9.20;99.90;;;;;;5096838;28;20028;-72
2023/01/12 04:50:13;;;;;;;7.18;1.13;;;9.20;99.90;;;;;;5114173;28;20080;-75
2023/01/12 04:52:39;;;;;;;6.70;1.30;;;9.20;99.90;;;;;;5096951;28;20028;-72
2023/01/12 04:55:05;;;;;;;7.65;1.08;;;9.10;99.90;;;;;;5096731;28;20512;-73
2023/01/12 04:57:31;;;;;;;6.43;1.30;;;9.10;99.90;;;;;;5095894;28;20027;-72
2023/01/12 04:59:57;;;;;;;5.82;1.15;;;9.10;99.90;;;;;;5096404;28;20036;-72
2023/01/12 05:02:23;;;;;;;5.70;0.98;;;9.10;99.90;;;;;;5095840;28;20028;-72
2023/01/12 05:04:48;;;;;;;8.65;1.08;;;9.10;99.90;;;;;;5095763;28;20387;-72
2023/01/12 05:07:15;;;;;;;12.93;1.27;;;9.00;99.90;;;;;;5113773;28;20031;-75
2023/01/12 05:12:25;;;;;;;7.80;2.30;;;9.00;99.90;;;;;;5114018;28;20395;-72
2023/01/12 05:14:50;;;;;;;8.32;1.38;;;8.90;99.90;;;;;;5114269;28;20024;-72
2023/01/12 05:17:16;;;;;;;7.50;1.40;;;8.90;99.90;;;;;;5095273;28;20126;-73
2023/01/12 05:19:42;;;;;;;4.90;1.00;;;8.90;99.90;;;;;;5114514;28;20070;-72
2023/01/12 05:22:07;;;;;;;6.50;1.00;;;8.80;99.90;;;;;;5096260;28;20055;-72
2023/01/12 05:24:33;;;;;;;6.72;1.20;;;8.80;99.90;;;;;;5095444;28;20286;-72
2023/01/12 05:26:59;;;;;;;5.18;1.08;;;8.80;99.90;;;;;;5095872;28;20081;-72
2023/01/12 05:29:25;;;;;;;7.07;1.30;;;8.70;99.90;;;;;;5094883;28;20035;-72
2023/01/12 05:31:51;;;;;;;7.72;1.27;;;8.70;99.90;;;;;;5096023;28;20038;-72
2023/01/12 05:34:18;;;;;;;5.75;1.17;;;8.70;99.90;;;;;;5095059;28;20114;-73
2023/01/12 05:36:45;;;;;;;7.28;1.00;;;8.70;99.90;;;;;;5095824;28;20548;-72
2023/01/12 05:39:10;;;;;;;9.10;1.20;;;8.70;99.90;;;;;;5095366;28;20081;-72
2023/01/12 05:41:36;;;;;;;5.82;1.15;;;8.70;99.90;;;;;;5113370;28;20047;-72
2023/01/12 05:44:02;;;;;;;11.32;2.10;;;8.70;99.90;;;;;;5095735;28;20107;-72
2023/01/12 05:46:30;;;;;;;6.00;1.15;;;8.70;99.90;;;;;;5095029;28;20440;-72
2023/01/12 05:48:57;;;;;;;6.63;1.20;;;8.70;99.90;;;;;;5095575;28;20023;-72
2023/01/12 05:51:24;;;;;;;9.52;1.27;;;8.70;99.90;;;;;;5094916;28;20036;-72
2023/01/12 05:53:50;;;;;;;8.35;1.13;;;8.70;99.90;;;;;;5095534;28;20024;-72
2023/01/12 05:56:20;;;;;;;7.43;1.20;;;8.80;99.90;;;;;;5095035;28;20520;-75
2023/01/12 05:58:51;;;;;;;8.25;1.30;;;8.80;99.90;;;;;;5094985;28;20032;-72
2023/01/12 06:01:18;;;;;;;7.35;1.02;;;8.80;99.90;;;;;;5094640;28;20031;-76
2023/01/12 06:03:48;;;;;;;7.03;0.95;;;8.80;99.90;;;;;;5095292;28;20032;-72
2023/01/12 06:06:14;;;;;;;6.68;1.02;;;8.80;99.90;;;;;;5113305;28;20111;-75
2023/01/12 06:08:40;;;;;;;11.18;1.33;;;8.90;99.90;;;;;;5094878;28;20031;-72
2023/01/12 06:11:05;;;;;;;8.38;1.02;;;8.90;99.90;;;;;;5094961;28;20024;-72
2023/01/12 06:16:15;;;;;;;7.60;1.30;;;8.90;99.90;;;;;;5112095;28;20035;-75
2023/01/12 06:18:41;;;;;;;9.23;1.13;;;9.00;99.90;;;;;;5112590;28;20047;-72
2023/01/12 06:21:07;;;;;;;7.90;1.52;;;9.00;99.90;;;;;;5095042;28;20118;-71
2023/01/12 06:23:33;;;;;;;9.90;1.20;;;9.00;99.90;;;;;;5094399;28;20085;-72
2023/01/12 06:26:00;;;;;;;4.75;0.88;;;9.00;99.90;;;;;;5095110;28;20028;-72
2023/01/12 06:28:26;;;;;;;8.45;1.33;;;9.10;99.90;;;;;;5094403;28;20058;-72
2023/01/12 06:31:00;;;;;;;8.25;1.13;;;9.10;99.90;;;;;;5094812;28;20084;-72
2023/01/12 06:33:27;;;;;;;7.38;0.80;;;9.10;99.90;;;;;;5112503;28;20050;-72
2023/01/12 06:35:54;;;;;;;9.60;1.20;;;9.10;99.90;;;;;;5113075;28;20469;-72
2023/01/12 06:38:20;;;;;;;10.57;1.75;;;9.20;99.90;;;;;;5112415;28;20069;-75
2023/01/12 06:40:46;;;;;;;7.40;1.33;;;9.20;99.90;;;;;;5112716;28;20031;-72
2023/01/12 06:43:12;;;;;;;5.88;0.70;;;9.20;99.90;;;;;;5094740;28;20031;-72
2023/01/12 06:45:37;;;;;;;7.93;1.42;;;9.30;99.90;;;;;;5093555;28;20143;-71
2023/01/12 06:48:03;;;;;;;6.53;0.82;;;9.30;99.90;;;;;;5094600;28;20035;-72
2023/01/12 06:50:31;;;;;;;8.25;1.20;;;9.30;99.90;;;;;;5093860;28;20385;-72
2023/01/12 06:52:58;;;;;;;9.02;1.20;;;9.30;99.90;;;;;;5113134;28;20101;-72
2023/01/12 06:55:24;;;;;;;8.70;1.38;;;9.30;99.90;;;;;;5111967;28;20028;-72
2023/01/12 06:57:50;;;;;;;2.95;1.05;;;9.30;99.90;;;;;;5112778;28;20491;-72
2023/01/12 07:00:16;;;;;;;7.88;0.98;;;9.30;99.90;;;;;;5112500;28;20032;-72
2023/01/12 07:02:41;;;;;;;9.35;1.38;;;9.30;99.90;;;;;;5093874;28;20035;-72
2023/01/12 07:05:07;;;;;;;5.93;1.05;;;9.30;99.90;;;;;;5112770;28;20035;-73
2023/01/12 07:07:36;;;;;;;9.27;1.58;;;9.40;99.90;;;;;;5093962;28;20057;-72
2023/01/12 07:10:02;;;;;;;8.43;1.10;;;9.40;99.90;;;;;;5094210;28;20059;-72
2023/01/12 07:12:27;;;;;;;10.05;1.17;;;9.40;99.90;;;;;;5093646;28;20031;-72
2023/01/12 07:14:55;;;;;;;5.35;0.82;;;9.40;99.90;;;;;;5112375;28;20391;-72
2023/01/12 07:17:20;;;;;;;7.22;1.30;;;9.40;99.90;;;;;;5111828;28;20126;-74
2023/01/12 07:19:46;;;;;;;6.57;0.80;;;9.50;99.90;;;;;;5094023;28;20050;-72
2023/01/12 07:22:12;;;;;;;5.70;1.15;;;9.50;99.90;;;;;;5094349;28;20024;-72
2023/01/12 07:24:37;;;;;;;6.95;1.73;;;9.50;99.90;;;;;;5093498;28;20020;-72
2023/01/12 07:27:03;;;;;;;3.30;0.60;;;9.50;99.90;;;;;;5095109;28;20492;-72
2023/01/12 07:29:29;;;;;;;5.93;0.93;;;9.50;99.90;;;;;;5097668;28;20035;-72
2023/01/12 07:31:54;;;;;;;7.40;0.90;;;9.50;99.90;;;;;;5098255;28;20035;-72
2023/01/12 07:34:20;;;;;;;5.47;0.90;;;9.50;99.90;;;;;;5098004;28;20027;-74
2023/01/12 07:36:50;;;;;;;5.43;0.95;;;9.50;99.90;;;;;;5097710;28;20051;-72
2023/01/12 07:39:16;;;;;;;5.93;0.70;;;9.50;99.90;;;;;;5097797;28;20062;-73
2023/01/12 07:44:26;;;;;;;6.05;0.60;;;9.50;99.90;;;;;;5105750;28;20084;-73
2023/01/12 07:46:51;;;;;;;3.15;0.68;;;9.50;99.90;;;;;;5115062;28;20023;-72
2023/01/12 07:49:17;;;;;;;6.78;0.70;;;9.50;99.90;;;;;;5115527;28;20023;-74
2023/01/12 07:51:43;;;;;;;3.75;0.70;;;9.50;99.90;;;;;;5094760;28;20064;-76
2023/01/12 07:54:09;;;;;;;5.90;0.88;;;9.50;99.90;;;;;;5096933;28;20457;-72
2023/01/12 07:56:34;;;;;;;6.78;1.10;;;9.50;99.90;;;;;;5096398;28;20027;-72
2023/01/12 07:59:00;;;;;;;1.58;0.68;;;9.50;99.90;;;;;;5115644;28;20463;-72
2023/01/12 08:01:26;;;;;;;6.60;1.00;;;9.50;99.90;;;;;;5095954;28;20065;-73
2023/01/12 08:03:51;;;;;;;4.18;0.90;;;9.50;99.90;;;;;;5115382;28;20472;-72
2023/01/12 08:06:17;;;;;;;4.90;0.80;;;9.60;99.90;;;;;;5115380;28;20023;-73
2023/01/12 08:08:43;;;;;;;3.97;1.00;;;9.60;99.90;;;;;;5114919;28;20423;-73
2023/01/12 08:11:10;;;;;;;4.18;0.77;;;9.60;99.90;;;;;;5079861;28;20111;-72
2023/01/12 08:13:37;;;;;;;6.13;0.95;;;9.60;99.90;;;;;;5114362;28;20023;-72
2023/01/12 08:16:29;;;;;;;4.90;0.85;;;9.60;99.90;;;;;;5096016;28;20035;-72
2023/01/12 08:19:00;;;;;;;;;;;9.50;99.90;;;;;;5115105;28;20047;-73
2023/01/12 08:21:32;;;;;;;3.90;0.65;;;9.60;99.90;;;;;;5113934;28;19908;-74
2023/01/12 08:24:00;;;;;;;4.15;0.68;;;9.60;99.90;;;;;;5115203;28;20114;-73
2023/01/12 08:26:31;;;;;;;4.43;0.73;;;9.60;99.90;;;;;;5095956;28;20028;-73
2023/01/12 08:29:20;;;;;;;5.60;0.77;;;9.70;99.90;;;;;;5096848;28;20056;-73
2023/01/12 08:31:46;;;;;;;6.05;1.05;;;9.60;99.90;;;;;;5081307;28;20032;-74
2023/01/12 08:34:12;;;;;;;6.70;0.70;;;9.60;99.90;;;;;;5096837;28;20415;-73
2023/01/12 08:36:40;;;;;;;5.03;0.80;;;9.60;99.90;;;;;;5095894;28;20115;-73
2023/01/12 08:39:06;;;;;;;7.03;0.80;;;9.60;99.90;;;;;;5095507;28;20030;-73
2023/01/12 08:41:31;;;;;;;3.55;0.60;;;9.70;99.90;;;;;;5079322;28;20027;-74
2023/01/12 08:44:01;;;;;;;4.85;0.85;;;9.70;99.90;;;;;;5096977;28;20027;-73
2023/01/12 08:46:45;;;;;;;6.60;1.20;;;9.70;99.90;;;;;;5095889;28;20035;-74
2023/01/12 08:49:12;;;;;;;5.57;1.10;;;9.70;99.90;;;;;;5114714;28;20019;-74
2023/01/12 08:51:38;;;;;;;8.27;1.08;;;9.70;99.90;;;;;;5095277;28;20391;-74
2023/01/12 08:54:05;;;;;;;10.52;1.33;;;9.70;99.90;;;;;;5096256;28;20114;-73
2023/01/12 08:56:31;;;;;;;4.22;0.80;;;9.70;99.90;;;;;;5113883;28;20051;-73
2023/01/12 08:58:57;;;;;;;8.68;1.23;;;9.70;99.90;;;;;;5114780;28;20461;-73
2023/01/12 09:01:23;;;;;;;3.22;0.98;;;9.70;99.90;;;;;;5094884;28;20041;-74
2023/01/12 09:03:49;;;;;;;11.73;1.02;;;9.80;99.90;;;;;;5095839;28;20076;-73
2023/01/12 09:06:24;;;;;;;6.93;0.70;;;9.80;99.90;;;;;;5096327;28;20376;-74
2023/01/12 09:09:02;;;;;;;6.10;0.80;;;9.80;99.90;;;;;;5114282;28;20019;-73
2023/01/12 09:11:29;;;;;;;6.80;1.08;;;9.90;99.90;;;;;;5078722;28;20028;-72
2023/01/12 09:13:55;;;;;;;5.80;1.65;;;9.80;99.90;;;;;;5095892;28;20039;-72
2023/01/12 09:16:21;;;;;;;5.90;1.40;;;9.80;99.90;;;;;;5113957;28;20016;-74
2023/01/12 09:18:47;;;;;;;4.57;0.65;;;9.80;99.90;;;;;;5110504;28;20051;-72
2023/01/12 09:21:15;;;;;;;11.13;1.17;;;9.90;99.90;;;;;;5098319;28;20038;-72
2023/01/12 09:23:41;;;;;;;4.88;0.68;;;9.90;99.90;;;;;;5113364;28;20031;-71
2023/01/12 09:26:10;;;;;;;8.68;1.13;;;9.90;99.90;;;;;;5114034;28;20098;-72
2023/01/12 09:28:36;;;;;;;2.47;0.75;;;10.00;99.90;;;;;;5103926;28;20427;-72
2023/01/12 09:31:04;;;;;;;5.75;0.80;;;10.00;99.90;;;;;;5099497;28;20550;-72
2023/01/12 09:33:30;;;;;;;4.82;0.77;;;10.10;99.90;;;;;;5110827;28;20034;-71
2023/01/12 09:36:07;;;;;;;4.15;0.80;;;10.10;99.90;;;;;;5095527;28;20031;-72
2023/01/12 09:38:40;;;;;;;11.38;1.00;;;10.10;99.90;;;;;;5103570;28;20038;-72
2023/01/12 09:47:38;;;;;;;5.88;0.60;;;10.00;99.90;;;;;;5113849;28;20397;-73
2023/01/12 09:50:13;;;;;;;5.90;0.80;;;10.00;99.90;;;;;;5071522;28;20109;-72
2023/01/12 09:52:45;;;;;;;7.03;0.93;;;10.00;99.90;;;;;;5074084;28;20628;-73
2023/01/12 09:55:26;;;;;;;7.05;0.98;;;10.00;99.90;;;;;;5075583;28;20028;-73
2023/01/12 09:58:19;;;;;;;4.72;1.00;;;10.00;99.90;;;;;;5111368;28;20028;-73
2023/01/12 10:00:56;;;;;;;4.35;0.60;;;10.10;99.90;;;;;;5100950;28;20127;-72
2023/01/12 10:03:37;;;;;;;4.43;0.70;;;10.10;99.90;;;;;;5109824;28;20076;-74
2023/01/12 10:06:04;;;;;;;3.20;0.82;;;10.20;99.90;;;;;;5099478;28;20023;-72
2023/01/12 10:08:47;;;;;;;6.15;0.93;;;10.20;99.90;;;;;;5111520;28;20024;-73
2023/01/12 10:11:24;;;;;;;7.63;1.10;;;10.30;99.90;;;;;;5112898;28;20115;-73
2023/01/12 10:14:10;;;;;;;7.00;1.20;;;10.30;99.90;;;;;;5109009;28;20043;-72
2023/01/12 10:17:14;;;;;;;8.93;0.93;;;10.30;99.90;;;;;;5112640;28;20024;-73
2023/01/12 10:19:39;;;;;;;5.60;1.08;;;10.30;99.90;;;;;;5076020;28;20237;-73
2023/01/12 10:22:35;;;;;;;7.20;0.70;;;10.30;99.90;;;;;;5073928;28;20541;-73
2023/01/12 10:25:14;;;;;;;6.18;0.75;;;10.30;99.90;;;;;;5074210;28;20031;-73
2023/01/12 10:27:45;;;;;;;5.13;1.10;;;10.40;99.90;;;;;;5057720;28;20103;-73
2023/01/12 10:30:32;;;;;;;8.57;1.17;;;10.40;99.90;;;;;;5074217;28;20393;-72
2023/01/12 10:33:12;;;;;;;9.82;1.45;;;10.40;99.90;;;;;;5073283;28;20036;-72
2023/01/12 10:35:56;;;;;;;3.35;0.85;;;10.50;99.90;;;;;;5053582;28;20029;-71
2023/01/12 10:38:37;;;;;;;7.60;1.40;;;10.50;99.90;;;;;;5064070;28;20024;-76
2023/01/12 10:41:08;;;;;;;6.13;1.33;;;10.50;99.90;;;;;;5076715;28;20028;-72
2023/01/12 10:43:35;;;;;;;4.72;1.00;;;10.50;99.90;;;;;;5057120;28;20420;-72
2023/01/12 10:46:07;;;;;;;5.03;0.80;;;10.40;99.90;;;;;;5074230;28;20055;-72
2023/01/12 10:48:37;;;;;;;;;;;10.40;99.90;;;;;;5092139;28;20111;-72
2023/01/12 10:51:07;;;;;;;4.95;0.90;;;10.50;99.90;;;;;;5092054;28;20416;-73
2023/01/12 10:53:44;;;;;;;4.07;0.70;;;10.60;99.90;;;;;;5074496;28;20020;-73
2023/01/12 10:56:26;;;;;;;3.17;0.73;;;10.60;99.90;;;;;;5074265;28;20055;-73
2023/01/12 10:58:53;;;;;;;;;;;10.60;99.90;;;;;;5074792;28;20119;-73
2023/01/12 11:01:20;;;;;;;1.05;0.40;;;10.60;99.90;;;;;;5091487;28;19905;-76
2023/01/12 11:03:46;;;;;;;3.72;0.50;;;10.70;99.90;;;;;;5077740;28;20027;-73
2023/01/12 11:06:27;;;;;;;3.97;0.60;;;10.70;99.90;;;;;;5077990;28;20024;-73
2023/01/12 11:08:54;;;;;;;1.80;0.63;;;10.60;99.90;;;;;;5078258;28;20081;-72
2023/01/12 11:11:28;;;;;;;4.72;1.00;;;10.70;99.90;;;;;;5061091;28;20281;-75
2023/01/12 11:13:59;;;;;;;2.30;0.50;;;10.70;99.90;;;;;;5078052;28;20043;-74
2023/01/12 11:16:31;;;;;;;2.77;0.43;;;10.80;99.90;;;;;;5095920;28;20032;-73
2023/01/12 11:19:09;;;;;;;1.58;0.30;;;10.70;99.90;;;;;;5097563;28;20048;-73
2023/01/12 11:21:38;;;;;;;3.00;0.52;;;10.80;99.90;;;;;;5082405;28;20061;-74
2023/01/12 11:24:28;;;;;;;2.53;0.45;;;10.80;99.90;;;;;;5106766;28;20123;-74
2023/01/12 11:27:21;;;;;;;1.20;0.47;;;10.90;99.90;;;;;;5095021;28;20111;-73
2023/01/12 11:30:16;;;;;;;1.92;0.63;;;10.90;99.90;;;;;;5085811;28;20119;-73
2023/01/12 11:32:48;;;;;;;5.50;0.47;;;10.80;99.90;;;;;;5100983;28;20356;-73
2023/01/12 11:35:36;;;;;;;2.17;0.30;;;10.80;99.90;;;;;;5094524;28;20445;-73
2023/01/12 11:38:15;;;;;;;2.58;0.63;;;10.80;99.90;;;;;;5103724;28;20023;-73
2023/01/12 11:40:43;;;;;;;3.95;0.50;;;10.70;99.90;;;;;;5090107;28;20024;-76
2023/01/12 11:46:27;;;;;;;3.50;0.70;;;10.60;99.90;;;;;;5095480;28;20063;-73
2023/01/12 11:48:53;;;;;;;2.90;0.50;;;10.60;99.90;;;;;;5077368;28;20046;-73
2023/01/12 11:51:18;;;;;;;4.00;0.60;;;10.50;99.90;;;;;;5088440;28;20512;-73
2023/01/12 11:53:44;;;;;;;3.42;0.63;;;10.60;99.90;;;;;;5091224;28;20389;-74
2023/01/12 11:56:26;;;;;;;3.70;0.60;;;10.60;99.90;;;;;;5110373;28;20066;-74
2023/01/12 11:59:10;;;;;;;2.53;0.52;;;10.60;99.90;;;;;;5104098;28;20392;-73
2023/01/12 12:01:54;;;;;;;1.42;0.43;;;10.70;99.90;;;;;;5098003;28;20063;-73
2023/01/12 12:04:47;;;;;;;2.33;0.50;;;10.70;99.90;;;;;;5085428;28;20016;-78
2023/01/12 12:07:43;;;;;;;3.00;0.82;;;10.70;99.90;;;;;;5103136;28;20026;-73
2023/01/12 12:10:21;;;;;;;4.72;0.93;;;10.60;99.90;;;;;;5096495;28;20024;-75
2023/01/12 12:13:01;;;;;;;1.77;0.60;;;10.60;99.90;;;;;;5095060;28;20020;-73
2023/01/12 12:15:31;;;;;;;2.97;0.65;;;10.60;99.90;;;;;;5107962;28;20100;-74
2023/01/12 12:18:36;;;;;;;3.78;0.70;;;10.70;99.90;;;;;;5098468;28;20396;-74
2023/01/12 12:21:16;;;;;;;1.85;0.30;;;10.70;99.90;;;;;;5114269;28;20043;-73
2023/01/12 12:23:51;;;;;;;3.80;0.50;;;10.80;99.90;;;;;;5097072;28;20051;-74
2023/01/12 12:26:44;;;;;;;3.17;0.75;;;10.90;99.90;;;;;;5096754;28;20074;-73
2023/01/12 12:29:09;;;;;;;;;;;10.80;99.90;;;;;;5097443;28;20051;-73
2023/01/12 12:31:50;;;;;;;2.20;0.50;;;10.80;99.90;;;;;;5096175;28;19912;-73
2023/01/12 12:34:48;;;;;;;2.45;0.75;;;10.80;99.90;;;;;;5096765;28;20027;-74
2023/01/12 12:37:28;;;;;;;1.33;0.30;;;10.80;99.90;;;;;;5114940;28;20035;-73
2023/01/12 12:40:04;;;;;;;1.15;0.22;;;10.80;99.90;;;;;;5096702;28;20486;-74
2023/01/12 12:46:07;;;;;;;2.67;0.90;;;10.70;99.90;;;;;;5110119;28;20057;-74
2023/01/12 12:49:14;;;;;;;2.63;0.50;;;10.70;99.90;;;;;;5087778;28;20111;-74
2023/01/12 12:51:41;;;;;;;1.85;0.50;;;10.70;99.90;;;;;;5109423;28;20462;-74
2023/01/12 12:54:14;;;;;;;1.30;0.40;;;10.70;99.90;;;;;;5096070;28;20106;-73
2023/01/12 12:56:40;;;;;;;1.50;0.50;;;10.70;99.90;;;;;;5114011;28;20045;-74
2023/01/12 12:59:06;;;;;;;1.60;0.60;;;10.70;99.90;;;;;;5096326;28;20048;-74
2023/01/12 13:01:31;;;;;;;2.25;0.32;;;10.70;99.90;;;;;;5095638;28;20027;-72
2023/01/12 13:03:58;;;;;;;2.47;0.40;;;10.80;99.90;;;;;;5114561;28;20024;-73
2023/01/12 13:06:33;;;;;;;1.15;0.40;;;10.80;99.90;;;;;;5113766;28;20385;-73
2023/01/12 13:09:10;;;;;;;2.70;0.30;;;10.80;99.90;;;;;;5096182;28;20024;-72
2023/01/12 13:11:56;;;;;;;1.30;0.45;;;10.90;99.90;;;;;;5091089;28;20039;-73
2023/01/12 13:14:33;;;;;;;2.42;0.50;;;10.90;99.90;;;;;;5080907;28;20071;-77
2023/01/12 13:17:18;;;;;;;4.78;0.68;;;11.00;99.90;;;;;;5095448;28;20419;-73
2023/01/12 13:20:01;;;;;;;1.08;0.30;;;11.00;99.90;;;;;;5095407;28;20039;-73
2023/01/12 13:22:45;;;;;;;;;;;11.00;99.90;;;;;;5095485;28;20114;-74
2023/01/12 13:25:21;;;;;;;1.95;0.40;;;11.00;99.90;;;;;;5095207;28;20355;-73
2023/01/12 13:28:04;;;;;;;1.40;0.50;;;11.00;99.90;;;;;;5112828;28;20016;-73
2023/01/12 13:30:29;;;;;;;4.07;0.55;;;11.00;99.90;;;;;;5094813;28;20039;-73
2023/01/12 13:33:18;;;;;;;1.67;0.50;;;11.00;99.90;;;;;;5095145;28;20027;-73
2023/01/12 13:35:45;;;;;;;2.33;0.30;;;11.00;99.90;;;;;;5113107;28;20037;-73
2023/01/12 13:38:27;;;;;;;1.55;0.38;;;10.90;99.90;;;;;;5095424;28;20015;-73
2023/01/12 13:41:00;;;;;;;0.90;0.30;;;10.90;99.90;;;;;;5090631;28;20027;-72
2023/01/12 13:43:29;;;;;;;4.68;1.25;;;10.90;99.90;;;;;;5112752;28;20045;-75
2023/01/12 13:46:09;;;;;;;0.95;0.30;;;10.80;99.90;;;;;;5095533;28;20491;-73
2023/01/12 13:48:35;;;;;;;2.40;0.60;;;10.80;99.90;;;;;;5094844;28;20061;-73
2023/01/12 13:51:19;;;;;;;5.43;0.50;;;10.80;99.90;;;;;;5095132;28;20032;-72